Itajuba, Brazil
Current Conditions -  °F | °C
As of 12:00 PM on Friday 24 Oct 2014 (Local Time) from SBGW Reporting Station
Scattered Clouds Scattered Clouds  
Wind Chill: 84°   Ceiling: Unl
Heat Index: 84°   Visibility: 6mi
Dew Point: 61°   Wind: 2mph
Humidity: 45%   Direction: 20°NNE
Pressure: 30.03"   Gusts: NA
Location:  22.43°S, 45.45°W
Report Text: SBGW 241400Z 02002KT 9999 SCT030 29/16 Q1017
Loading
Personal Weather Stations






























Interactive Weather Map
Tropical Storm Tracking
New forecast layout! Learn more

10-Day Weather Forecast

Advertisements
Track Severe Weather on mobile